Pasadena Park, Missouri
Current Conditions -  °F | °C
As of 7:51 AM on Saturday 22 Nov 2014 (Local Time) from KSTL Reporting Station
Broken Clouds Broken Clouds  
Wind Chill: 50°   Ceiling: 20000
Heat Index: 50°   Visibility: 10mi
Dew Point: 42°   Wind: 8mph
Humidity: 74%   Direction: 190°S
Pressure: 30.1"   Gusts: NA
Location:  38.7055°N, 90.3021°W
Report Text: KSTL 221351Z 19007KT 10SM FEW055 SCT075 BKN200 10/06 A3010 RMK AO2 SLP195 T01000056
Loading
Personal Weather Stations






























Interactive Weather Map New forecast layout! Learn more

10-Day Weather Forecast

Advertisements
Track Severe Weather on mobile